Imotski, Croatia

11:30 PM CET on November 27, 2014 (GMT +0100)
Kostanje-Poljica | Change Station
CLOSE
Current Station
Personal Weather Station
Location: Kostanje, SPLITSKO-DALMATINSKA ┼żUPANIJA
Elevation: 728 ft
Nearby Weather Stations

Elev 728 ft 43.44 °N, 16.83 °E | Updated 1 second ago

Mostly Cloudy
Mostly Cloudy
52.2 °F
Feels Like 52.2 °F
N
0.0
Wind Variable Wind from ESE
Gusts 0.0 mph

Today
High -- | Low -- °F
--% Chance of Precip.
Yesterday
High -- | Low -- °F
Precip. -- in
6:59 AM 4:17 PM
Waxing Crescent, 33% visible
Pressure 30.04 in
Visibility 3.7 miles
Clouds Mostly Cloudy 5000 ft
Dew Point 50 °F
Humidity 91%
Rainfall 0.06 in
Snow Depth Not available.
UV 0 out of 12
Pollen Not available.
Air Quality Not available.
Flu Activity Not available.
METAR LQMO 272200Z VRB01KT 6000 BKN050 10/09 Q1017

More Conditions Fewer Conditions

Pressure 30.04 in
Visibility 3.7 miles
Clouds Mostly Cloudy 5000 ft
Dew Point 50 °F
Humidity 91%
Rainfall 0.06 in
Snow Depth Not available.
UV 0 out of 12
Pollen Not available.
Air Quality Not available.
Flu Activity Not available.
METAR LQMO 272200Z VRB01KT 6000 BKN050 10/09 Q1017

More Conditions Fewer Conditions

10-Day Weather Forecast

Almanac

Astronomy

Nov. 27, 2014 Rise Set
Actual Time
Civil Twilight
Nautical Twilight
Astronomical Twilight
Moon
Length of Visible Light
Length of Day
Tomorrow will be .
, % of the Moon is Illuminated

Today's Extremes

Country Highs Country Lows

Community

WunderPhotos

Upload Photos

1,774,125 photos uploaded!

WunderBlogs® & News

Nearby

Air Quality

  Air Quality AQ Index Pollutant
Not available.

Snow Depth

Station Depth Elevation

Earthquake Activity

City Distance Mag. Time & Date
Minimum magnitude displayed is 2.5.

Coastal Water Temperatures

Place Temperature

Nearby Weather Stations